Leonardville, Kansas
Current Conditions -  °F | °C
As of 3:52 AM on Monday 26 Jan 2015 (Local Time) from KMHK Reporting Station
Broken Clouds Broken Clouds  
Wind Chill: 20°   Ceiling: 9000
Heat Index: 28°   Visibility: 10mi
Dew Point: 26°   Wind: 8mph
Humidity: 92%   Direction: 210°SSW
Pressure: 30.07"   Gusts: NA
Location:  39.36°N, 96.86°W
Report Text: KMHK 260952Z AUTO 21007KT 10SM BKN090 M02/M03 A3007 RMK AO2 SLP189 T10221033 TSNO
Loading
Personal Weather Stations






























Interactive Weather Map New forecast layout! Learn more

10-Day Weather Forecast

Advertisements
Track Severe Weather on mobile